sensor_id;sensor_type;location;lat;lon;timestamp;pressure;altitude;pressure_sealevel;temperature;humidity
40982;BME280;26708;50.304;19.028;2022-09-09T00:03:11;98031.50;;;20.96;77.13
40982;BME280;26708;50.304;19.028;2022-09-09T00:06:28;98045.25;;;21.06;76.99
40982;BME280;26708;50.304;19.028;2022-09-09T00:09:36;98038.41;;;21.00;77.32
40982;BME280;26708;50.304;19.028;2022-09-09T00:16:15;98049.75;;;21.04;77.08
40982;BME280;26708;50.304;19.028;2022-09-09T00:19:44;98046.28;;;21.02;77.17
40982;BME280;26708;50.304;19.028;2022-09-09T00:26:35;98041.06;;;21.00;77.56
40982;BME280;26708;50.304;19.028;2022-09-09T00:29:45;98023.00;;;20.88;77.42
40982;BME280;26708;50.304;19.028;2022-09-09T00:33:00;98040.59;;;20.89;77.61
40982;BME280;26708;50.304;19.028;2022-09-09T00:36:02;98045.53;;;20.98;77.68
40982;BME280;26708;50.304;19.028;2022-09-09T00:39:04;98038.75;;;20.91;78.05
40982;BME280;26708;50.304;19.028;2022-09-09T00:42:14;98041.13;;;20.99;77.78
40982;BME280;26708;50.304;19.028;2022-09-09T00:48:37;98044.03;;;20.91;77.75
40982;BME280;26708;50.304;19.028;2022-09-09T00:58:23;98057.13;;;20.96;77.74
40982;BME280;26708;50.304;19.028;2022-09-09T01:01:24;98072.00;;;20.98;77.64
40982;BME280;26708;50.304;19.028;2022-09-09T01:04:31;98040.88;;;20.82;77.46
40982;BME280;26708;50.304;19.028;2022-09-09T01:07:34;98069.50;;;20.95;77.70
40982;BME280;26708;50.304;19.028;2022-09-09T01:10:41;98054.03;;;20.83;77.65
40982;BME280;26708;50.304;19.028;2022-09-09T01:13:55;98055.19;;;20.76;77.61
40982;BME280;26708;50.304;19.028;2022-09-09T01:24:15;98082.13;;;20.89;78.18
40982;BME280;26708;50.304;19.028;2022-09-09T01:27:46;98087.31;;;20.90;78.07
40982;BME280;26708;50.304;19.028;2022-09-09T01:30:51;98092.56;;;20.92;78.06
40982;BME280;26708;50.304;19.028;2022-09-09T01:33:55;98073.44;;;20.84;77.75
40982;BME280;26708;50.304;19.028;2022-09-09T01:37:08;98076.97;;;20.84;77.80
40982;BME280;26708;50.304;19.028;2022-09-09T01:40:11;98069.03;;;20.84;77.62
40982;BME280;26708;50.304;19.028;2022-09-09T01:43:13;98088.94;;;20.94;77.51
40982;BME280;26708;50.304;19.028;2022-09-09T01:46:16;98097.72;;;20.95;77.44
40982;BME280;26708;50.304;19.028;2022-09-09T01:49:18;98063.13;;;20.76;77.50
40982;BME280;26708;50.304;19.028;2022-09-09T01:52:20;98095.03;;;20.96;77.65
40982;BME280;26708;50.304;19.028;2022-09-09T01:55:38;98103.91;;;20.95;77.49
40982;BME280;26708;50.304;19.028;2022-09-09T02:09:29;98106.13;;;20.83;77.31
40982;BME280;26708;50.304;19.028;2022-09-09T02:12:35;98095.88;;;20.74;76.87
40982;BME280;26708;50.304;19.028;2022-09-09T02:22:31;98112.16;;;20.63;77.18
40982;BME280;26708;50.304;19.028;2022-09-09T02:25:36;98114.00;;;20.61;77.20
40982;BME280;26708;50.304;19.028;2022-09-09T02:28:49;98113.34;;;20.55;77.33
40982;BME280;26708;50.304;19.028;2022-09-09T02:31:52;98103.06;;;20.47;77.10
40982;BME280;26708;50.304;19.028;2022-09-09T02:35:06;98124.09;;;20.50;77.16
40982;BME280;26708;50.304;19.028;2022-09-09T02:38:12;98116.19;;;20.49;77.31
40982;BME280;26708;50.304;19.028;2022-09-09T02:41:39;98118.00;;;20.48;76.89
40982;BME280;26708;50.304;19.028;2022-09-09T02:44:41;98132.06;;;20.49;76.73
40982;BME280;26708;50.304;19.028;2022-09-09T02:51:37;98114.97;;;20.34;76.71
40982;BME280;26708;50.304;19.028;2022-09-09T02:54:40;98115.09;;;20.31;77.17
40982;BME280;26708;50.304;19.028;2022-09-09T02:57:45;98130.63;;;20.40;76.97
40982;BME280;26708;50.304;19.028;2022-09-09T03:00:50;98138.53;;;20.42;77.15
40982;BME280;26708;50.304;19.028;2022-09-09T03:03:51;98136.78;;;20.41;76.87
40982;BME280;26708;50.304;19.028;2022-09-09T03:06:52;98137.78;;;20.38;76.42
40982;BME280;26708;50.304;19.028;2022-09-09T03:09:55;98143.06;;;20.38;76.40
40982;BME280;26708;50.304;19.028;2022-09-09T03:12:58;98143.94;;;20.37;76.55
40982;BME280;26708;50.304;19.028;2022-09-09T03:16:02;98140.63;;;20.32;76.69
40982;BME280;26708;50.304;19.028;2022-09-09T03:19:07;98139.13;;;20.25;76.28
40982;BME280;26708;50.304;19.028;2022-09-09T03:22:10;98139.00;;;20.28;76.52
40982;BME280;26708;50.304;19.028;2022-09-09T03:25:13;98152.00;;;20.34;76.38
40982;BME280;26708;50.304;19.028;2022-09-09T03:28:14;98150.41;;;20.30;76.35
40982;BME280;26708;50.304;19.028;2022-09-09T03:31:17;98152.16;;;20.30;75.97
40982;BME280;26708;50.304;19.028;2022-09-09T03:34:19;98141.88;;;20.22;75.91
40982;BME280;26708;50.304;19.028;2022-09-09T03:37:20;98128.13;;;20.11;75.82
40982;BME280;26708;50.304;19.028;2022-09-09T03:40:23;98167.28;;;20.26;75.66
40982;BME280;26708;50.304;19.028;2022-09-09T03:43:25;98171.75;;;20.24;75.89
40982;BME280;26708;50.304;19.028;2022-09-09T03:46:27;98168.53;;;20.16;75.73
40982;BME280;26708;50.304;19.028;2022-09-09T03:49:28;98170.13;;;20.20;75.84
40982;BME280;26708;50.304;19.028;2022-09-09T03:52:30;98173.69;;;20.19;75.90
40982;BME280;26708;50.304;19.028;2022-09-09T03:55:31;98170.41;;;20.13;75.74
40982;BME280;26708;50.304;19.028;2022-09-09T03:58:34;98162.63;;;20.08;75.34
40982;BME280;26708;50.304;19.028;2022-09-09T04:01:39;98164.31;;;20.11;75.71
40982;BME280;26708;50.304;19.028;2022-09-09T04:04:40;98158.34;;;20.04;75.96
40982;BME280;26708;50.304;19.028;2022-09-09T04:07:41;98159.28;;;20.02;75.44
40982;BME280;26708;50.304;19.028;2022-09-09T04:10:45;98169.81;;;20.03;76.06
40982;BME280;26708;50.304;19.028;2022-09-09T04:13:47;98174.25;;;20.03;75.61
40982;BME280;26708;50.304;19.028;2022-09-09T04:16:48;98178.75;;;19.99;75.72
40982;BME280;26708;50.304;19.028;2022-09-09T04:19:49;98170.22;;;19.91;76.01
40982;BME280;26708;50.304;19.028;2022-09-09T04:22:50;98173.75;;;19.90;75.78
40982;BME280;26708;50.304;19.028;2022-09-09T04:25:53;98176.41;;;19.90;75.85
40982;BME280;26708;50.304;19.028;2022-09-09T04:28:54;98171.38;;;19.83;75.95
40982;BME280;26708;50.304;19.028;2022-09-09T04:31:57;98173.25;;;19.79;76.32
40982;BME280;26708;50.304;19.028;2022-09-09T04:34:57;98177.47;;;19.85;76.24
40982;BME280;26708;50.304;19.028;2022-09-09T04:37:59;98182.53;;;19.92;75.90
40982;BME280;26708;50.304;19.028;2022-09-09T04:41:01;98183.47;;;19.90;76.05
40982;BME280;26708;50.304;19.028;2022-09-09T04:44:02;98174.06;;;19.81;76.30
40982;BME280;26708;50.304;19.028;2022-09-09T04:47:04;98180.06;;;19.86;76.07
40982;BME280;26708;50.304;19.028;2022-09-09T04:50:07;98185.19;;;19.91;75.94
40982;BME280;26708;50.304;19.028;2022-09-09T04:53:08;98181.06;;;19.82;75.78
40982;BME280;26708;50.304;19.028;2022-09-09T04:56:14;98192.47;;;19.84;75.86
40982;BME280;26708;50.304;19.028;2022-09-09T04:59:19;98176.16;;;19.72;76.08
40982;BME280;26708;50.304;19.028;2022-09-09T05:02:26;98181.22;;;19.78;76.04
40982;BME280;26708;50.304;19.028;2022-09-09T05:05:26;98191.72;;;19.81;76.70
40982;BME280;26708;50.304;19.028;2022-09-09T05:08:28;98208.25;;;19.86;76.60
40982;BME280;26708;50.304;19.028;2022-09-09T05:11:31;98202.06;;;19.87;76.22
40982;BME280;26708;50.304;19.028;2022-09-09T05:14:40;98204.69;;;19.87;76.16
40982;BME280;26708;50.304;19.028;2022-09-09T05:17:42;98198.69;;;19.83;76.79
40982;BME280;26708;50.304;19.028;2022-09-09T05:20:44;98208.25;;;19.86;76.59
40982;BME280;26708;50.304;19.028;2022-09-09T05:23:46;98211.75;;;19.88;76.27
40982;BME280;26708;50.304;19.028;2022-09-09T05:26:47;98210.97;;;19.84;76.29
40982;BME280;26708;50.304;19.028;2022-09-09T05:29:55;98214.38;;;19.88;76.75
40982;BME280;26708;50.304;19.028;2022-09-09T05:33:00;98217.66;;;19.96;77.26
40982;BME280;26708;50.304;19.028;2022-09-09T05:36:04;98215.78;;;19.99;76.86
40982;BME280;26708;50.304;19.028;2022-09-09T05:39:06;98168.72;;;19.83;76.61
40982;BME280;26708;50.304;19.028;2022-09-09T05:42:08;98204.81;;;20.11;75.80
40982;BME280;26708;50.304;19.028;2022-09-09T05:45:09;98219.22;;;20.29;75.53
40982;BME280;26708;50.304;19.028;2022-09-09T05:48:11;98220.00;;;20.31;75.16
40982;BME280;26708;50.304;19.028;2022-09-09T05:51:14;98207.81;;;20.27;75.30
40982;BME280;26708;50.304;19.028;2022-09-09T05:54:18;98211.22;;;20.30;75.41
40982;BME280;26708;50.304;19.028;2022-09-09T05:57:23;98205.78;;;20.35;75.39
40982;BME280;26708;50.304;19.028;2022-09-09T06:00:24;98217.88;;;20.42;74.87
40982;BME280;26708;50.304;19.028;2022-09-09T06:03:27;98207.31;;;20.42;74.48
40982;BME280;26708;50.304;19.028;2022-09-09T06:06:31;98221.00;;;20.53;74.53
40982;BME280;26708;50.304;19.028;2022-09-09T06:09:37;98227.91;;;20.57;74.98
40982;BME280;26708;50.304;19.028;2022-09-09T06:12:39;98218.25;;;20.56;74.88
40982;BME280;26708;50.304;19.028;2022-09-09T06:15:49;98225.81;;;20.66;74.62
40982;BME280;26708;50.304;19.028;2022-09-09T06:18:52;98192.72;;;20.55;73.97
40982;BME280;26708;50.304;19.028;2022-09-09T06:21:55;98159.81;;;20.37;73.19
40982;BME280;26708;50.304;19.028;2022-09-09T06:24:56;98197.50;;;20.68;72.61
40982;BME280;26708;50.304;19.028;2022-09-09T06:27:57;98189.81;;;20.62;72.46
40982;BME280;26708;50.304;19.028;2022-09-09T06:31:09;98204.16;;;20.80;73.07
40982;BME280;26708;50.304;19.028;2022-09-09T06:34:10;98232.66;;;20.98;73.18
40982;BME280;26708;50.304;19.028;2022-09-09T06:37:15;98225.34;;;21.04;72.45
40982;BME280;26708;50.304;19.028;2022-09-09T06:40:21;98225.31;;;21.06;71.89
40982;BME280;26708;50.304;19.028;2022-09-09T06:43:22;98210.44;;;21.02;72.03
40982;BME280;26708;50.304;19.028;2022-09-09T06:46:27;98219.84;;;21.10;69.94
40982;BME280;26708;50.304;19.028;2022-09-09T06:49:29;98222.38;;;21.13;69.91
40982;BME280;26708;50.304;19.028;2022-09-09T06:52:29;98234.25;;;21.26;69.23
40982;BME280;26708;50.304;19.028;2022-09-09T06:55:31;98191.69;;;21.08;68.81
40982;BME280;26708;50.304;19.028;2022-09-09T06:58:32;98218.34;;;21.26;68.25
40982;BME280;26708;50.304;19.028;2022-09-09T07:01:40;98208.31;;;21.34;68.40
40982;BME280;26708;50.304;19.028;2022-09-09T07:04:44;98214.06;;;21.45;68.33
40982;BME280;26708;50.304;19.028;2022-09-09T07:07:45;98222.44;;;21.58;67.69
40982;BME280;26708;50.304;19.028;2022-09-09T07:10:48;98216.81;;;21.67;67.69
40982;BME280;26708;50.304;19.028;2022-09-09T07:13:50;98194.81;;;21.63;67.69
40982;BME280;26708;50.304;19.028;2022-09-09T07:16:51;98217.38;;;21.75;66.05
40982;BME280;26708;50.304;19.028;2022-09-09T07:19:52;98208.25;;;21.59;64.91
40982;BME280;26708;50.304;19.028;2022-09-09T07:22:58;98220.28;;;21.67;65.41
40982;BME280;26708;50.304;19.028;2022-09-09T07:26:06;98217.72;;;21.66;65.98
40982;BME280;26708;50.304;19.028;2022-09-09T07:29:08;98175.19;;;21.46;66.61
40982;BME280;26708;50.304;19.028;2022-09-09T07:32:09;98185.19;;;21.61;65.61
40982;BME280;26708;50.304;19.028;2022-09-09T07:35:12;98198.50;;;21.82;66.31
40982;BME280;26708;50.304;19.028;2022-09-09T07:38:13;98192.25;;;21.83;66.18
40982;BME280;26708;50.304;19.028;2022-09-09T07:41:37;98211.28;;;21.94;64.05
40982;BME280;26708;50.304;19.028;2022-09-09T07:44:38;98212.84;;;21.98;64.01
40982;BME280;26708;50.304;19.028;2022-09-09T07:47:47;98210.88;;;22.03;64.15
40982;BME280;26708;50.304;19.028;2022-09-09T07:50:49;98224.84;;;22.08;64.12
40982;BME280;26708;50.304;19.028;2022-09-09T07:53:56;98214.28;;;22.07;63.75
40982;BME280;26708;50.304;19.028;2022-09-09T07:57:00;98169.31;;;21.82;63.62
40982;BME280;26708;50.304;19.028;2022-09-09T08:00:18;98238.56;;;22.18;63.69
40982;BME280;26708;50.304;19.028;2022-09-09T08:03:25;98216.75;;;22.11;63.88
40982;BME280;26708;50.304;19.028;2022-09-09T08:06:27;98234.06;;;22.20;63.83
40982;BME280;26708;50.304;19.028;2022-09-09T08:09:29;98242.50;;;22.29;63.44
40982;BME280;26708;50.304;19.028;2022-09-09T08:12:39;98233.56;;;22.32;63.23
40982;BME280;26708;50.304;19.028;2022-09-09T08:15:40;98216.91;;;22.28;64.46
40982;BME280;26708;50.304;19.028;2022-09-09T08:18:43;98243.38;;;22.51;64.44
40982;BME280;26708;50.304;19.028;2022-09-09T08:21:45;98237.69;;;22.60;64.03
40982;BME280;26708;50.304;19.028;2022-09-09T08:24:47;98210.19;;;22.41;63.19
40982;BME280;26708;50.304;19.028;2022-09-09T08:27:48;98244.50;;;22.66;62.88
40982;BME280;26708;50.304;19.028;2022-09-09T08:30:49;98237.22;;;22.71;63.26
40982;BME280;26708;50.304;19.028;2022-09-09T08:33:51;98203.38;;;22.56;62.39
40982;BME280;26708;50.304;19.028;2022-09-09T08:36:53;98236.72;;;22.83;62.95
40982;BME280;26708;50.304;19.028;2022-09-09T08:39:59;98226.00;;;22.84;61.84
40982;BME280;26708;50.304;19.028;2022-09-09T08:43:07;98236.03;;;22.98;61.88
40982;BME280;26708;50.304;19.028;2022-09-09T08:46:25;98226.31;;;22.97;61.86
40982;BME280;26708;50.304;19.028;2022-09-09T08:53:22;98237.97;;;23.13;60.31
40982;BME280;26708;50.304;19.028;2022-09-09T08:56:26;98243.16;;;23.17;61.09
40982;BME280;26708;50.304;19.028;2022-09-09T08:59:32;98237.53;;;23.23;60.89
40982;BME280;26708;50.304;19.028;2022-09-09T09:06:06;98225.28;;;23.21;60.02
40982;BME280;26708;50.304;19.028;2022-09-09T09:12:28;98243.03;;;23.39;59.32
40982;BME280;26708;50.304;19.028;2022-09-09T09:15:36;98245.63;;;23.40;59.85
40982;BME280;26708;50.304;19.028;2022-09-09T09:18:39;98210.84;;;23.26;58.97
40982;BME280;26708;50.304;19.028;2022-09-09T09:21:45;98240.09;;;23.45;59.43
40982;BME280;26708;50.304;19.028;2022-09-09T09:24:56;98250.75;;;23.45;59.69
40982;BME280;26708;50.304;19.028;2022-09-09T09:28:18;98245.34;;;23.46;59.51
40982;BME280;26708;50.304;19.028;2022-09-09T09:31:27;98237.28;;;23.48;59.68
40982;BME280;26708;50.304;19.028;2022-09-09T09:34:29;98245.06;;;23.52;59.48
40982;BME280;26708;50.304;19.028;2022-09-09T09:37:34;98224.06;;;23.46;58.77
40982;BME280;26708;50.304;19.028;2022-09-09T09:40:50;98233.94;;;23.63;57.62
40982;BME280;26708;50.304;19.028;2022-09-09T09:43:54;98233.72;;;23.67;56.58
40982;BME280;26708;50.304;19.028;2022-09-09T09:47:24;98198.78;;;23.56;58.45
40982;BME280;26708;50.304;19.028;2022-09-09T09:54:18;98213.31;;;23.68;56.93
40982;BME280;26708;50.304;19.028;2022-09-09T09:57:29;98216.75;;;23.70;57.06
40982;BME280;26708;50.304;19.028;2022-09-09T10:00:33;98228.94;;;23.73;55.94
40982;BME280;26708;50.304;19.028;2022-09-09T10:07:10;98230.63;;;23.76;55.67
40982;BME280;26708;50.304;19.028;2022-09-09T10:10:23;98209.00;;;23.65;54.86
40982;BME280;26708;50.304;19.028;2022-09-09T10:17:05;98231.97;;;23.84;54.35
40982;BME280;26708;50.304;19.028;2022-09-09T10:37:37;98263.22;;;23.99;55.21
40982;BME280;26708;50.304;19.028;2022-09-09T10:50:51;98266.81;;;23.98;54.77
40982;BME280;26708;50.304;19.028;2022-09-09T10:57:37;98249.19;;;23.96;55.50
40982;BME280;26708;50.304;19.028;2022-09-09T11:00:44;98258.16;;;24.12;52.99
40982;BME280;26708;50.304;19.028;2022-09-09T11:03:53;98242.50;;;24.06;53.31
40982;BME280;26708;50.304;19.028;2022-09-09T11:06:55;98265.75;;;24.19;53.12
40982;BME280;26708;50.304;19.028;2022-09-09T11:10:03;98271.03;;;24.21;53.45
40982;BME280;26708;50.304;19.028;2022-09-09T11:13:20;98230.84;;;24.08;53.37
40982;BME280;26708;50.304;19.028;2022-09-09T11:16:41;98250.91;;;24.15;51.09
40982;BME280;26708;50.304;19.028;2022-09-09T11:19:46;98266.63;;;24.20;51.28
40982;BME280;26708;50.304;19.028;2022-09-09T11:22:55;98218.28;;;23.93;50.32
40982;BME280;26708;50.304;19.028;2022-09-09T11:26:01;98267.59;;;24.19;51.03
40982;BME280;26708;50.304;19.028;2022-09-09T11:32:44;98264.31;;;24.31;49.14
40982;BME280;26708;50.304;19.028;2022-09-09T11:39:17;98259.63;;;24.36;47.60
40982;BME280;26708;50.304;19.028;2022-09-09T11:43:12;98268.38;;;24.38;48.45
40982;BME280;26708;50.304;19.028;2022-09-09T11:46:17;98245.97;;;24.25;48.84
40982;BME280;26708;50.304;19.028;2022-09-09T11:49:41;98263.28;;;24.33;49.42
40982;BME280;26708;50.304;19.028;2022-09-09T11:52:47;98228.50;;;24.19;48.93
40982;BME280;26708;50.304;19.028;2022-09-09T11:56:09;98255.25;;;24.35;48.07
40982;BME280;26708;50.304;19.028;2022-09-09T11:59:31;98252.56;;;24.35;48.52
40982;BME280;26708;50.304;19.028;2022-09-09T12:02:32;98229.31;;;24.21;48.75
40982;BME280;26708;50.304;19.028;2022-09-09T12:05:42;98254.38;;;24.34;49.69
40982;BME280;26708;50.304;19.028;2022-09-09T12:08:50;98246.53;;;24.31;49.15
40982;BME280;26708;50.304;19.028;2022-09-09T12:12:05;98255.06;;;24.38;49.71
40982;BME280;26708;50.304;19.028;2022-09-09T12:18:21;98254.94;;;24.41;46.65
40982;BME280;26708;50.304;19.028;2022-09-09T12:21:48;98258.38;;;24.43;46.86
40982;BME280;26708;50.304;19.028;2022-09-09T12:24:59;98170.31;;;23.95;46.36
40982;BME280;26708;50.304;19.028;2022-09-09T12:37:43;98253.78;;;24.46;46.45
40982;BME280;26708;50.304;19.028;2022-09-09T12:40:55;98247.34;;;24.50;46.22
40982;BME280;26708;50.304;19.028;2022-09-09T12:44:09;98254.91;;;24.59;46.72
40982;BME280;26708;50.304;19.028;2022-09-09T12:47:10;98254.13;;;24.57;46.03
40982;BME280;26708;50.304;19.028;2022-09-09T12:50:19;98253.66;;;24.66;46.26
40982;BME280;26708;50.304;19.028;2022-09-09T12:56:30;98232.88;;;24.56;45.64
40982;BME280;26708;50.304;19.028;2022-09-09T12:59:37;98187.28;;;24.28;46.27
40982;BME280;26708;50.304;19.028;2022-09-09T13:02:56;98248.56;;;24.62;46.57
40982;BME280;26708;50.304;19.028;2022-09-09T13:06:09;98249.56;;;24.59;47.03
40982;BME280;26708;50.304;19.028;2022-09-09T13:09:11;98124.50;;;23.88;48.34
40982;BME280;26708;50.304;19.028;2022-09-09T13:12:20;98225.31;;;24.47;47.68
40982;BME280;26708;50.304;19.028;2022-09-09T13:15:24;98244.25;;;24.59;48.15
40982;BME280;26708;50.304;19.028;2022-09-09T13:18:34;98186.50;;;24.26;47.93
40982;BME280;26708;50.304;19.028;2022-09-09T13:21:39;98164.06;;;24.13;47.17
40982;BME280;26708;50.304;19.028;2022-09-09T13:24:41;98165.78;;;24.14;47.48
40982;BME280;26708;50.304;19.028;2022-09-09T13:27:53;98234.41;;;24.61;47.16
40982;BME280;26708;50.304;19.028;2022-09-09T13:31:04;98231.63;;;24.63;47.39
40982;BME280;26708;50.304;19.028;2022-09-09T13:34:30;98228.97;;;24.63;47.27
40982;BME280;26708;50.304;19.028;2022-09-09T13:37:39;98222.03;;;24.60;48.32
40982;BME280;26708;50.304;19.028;2022-09-09T13:40:55;98195.19;;;24.46;48.51
40982;BME280;26708;50.304;19.028;2022-09-09T13:44:02;98136.34;;;24.17;47.86
40982;BME280;26708;50.304;19.028;2022-09-09T13:47:22;98161.34;;;24.31;47.25
40982;BME280;26708;50.304;19.028;2022-09-09T13:50:28;98109.66;;;24.01;47.90
40982;BME280;26708;50.304;19.028;2022-09-09T13:53:29;98212.91;;;24.64;46.92
40982;BME280;26708;50.304;19.028;2022-09-09T13:56:30;98203.91;;;24.67;47.89
40982;BME280;26708;50.304;19.028;2022-09-09T13:59:32;98206.56;;;24.67;46.83
40982;BME280;26708;50.304;19.028;2022-09-09T14:02:33;98203.91;;;24.67;46.90
40982;BME280;26708;50.304;19.028;2022-09-09T14:05:34;98205.69;;;24.66;46.29
40982;BME280;26708;50.304;19.028;2022-09-09T14:08:35;98202.97;;;24.68;46.57
40982;BME280;26708;50.304;19.028;2022-09-09T14:11:38;98170.78;;;24.55;46.78
40982;BME280;26708;50.304;19.028;2022-09-09T14:14:39;98190.44;;;24.70;47.00
40982;BME280;26708;50.304;19.028;2022-09-09T14:17:39;98186.81;;;24.71;46.88
40982;BME280;26708;50.304;19.028;2022-09-09T14:20:40;98142.78;;;24.47;46.56
40982;BME280;26708;50.304;19.028;2022-09-09T14:23:41;98160.97;;;24.56;45.40
40982;BME280;26708;50.304;19.028;2022-09-09T14:31:20;98185.19;;;24.68;45.97
40982;BME280;26708;50.304;19.028;2022-09-09T14:34:21;98181.91;;;24.63;45.10
40982;BME280;26708;50.304;19.028;2022-09-09T14:37:23;98167.25;;;24.55;45.71
40982;BME280;26708;50.304;19.028;2022-09-09T14:40:24;98138.56;;;24.26;45.08
40982;BME280;26708;50.304;19.028;2022-09-09T14:48:04;98174.16;;;24.59;46.85
40982;BME280;26708;50.304;19.028;2022-09-09T14:51:13;98150.78;;;24.47;47.08
40982;BME280;26708;50.304;19.028;2022-09-09T14:54:14;98149.06;;;24.46;45.77
40982;BME280;26708;50.304;19.028;2022-09-09T14:57:15;98184.63;;;24.62;45.83
40982;BME280;26708;50.304;19.028;2022-09-09T15:00:16;98180.25;;;24.61;46.45
40982;BME280;26708;50.304;19.028;2022-09-09T15:03:16;98098.63;;;24.09;47.04
40982;BME280;26708;50.304;19.028;2022-09-09T15:06:17;98174.28;;;24.56;45.69
40982;BME280;26708;50.304;19.028;2022-09-09T15:09:19;98139.66;;;24.39;46.83
40982;BME280;26708;50.304;19.028;2022-09-09T15:12:20;98072.66;;;23.97;46.19
40982;BME280;26708;50.304;19.028;2022-09-09T15:15:21;98107.25;;;24.14;45.51
40982;BME280;26708;50.304;19.028;2022-09-09T15:18:22;98064.34;;;23.86;46.47
40982;BME280;26708;50.304;19.028;2022-09-09T15:21:25;98119.47;;;24.18;46.09
40982;BME280;26708;50.304;19.028;2022-09-09T15:24:26;98114.38;;;24.13;47.41
40982;BME280;26708;50.304;19.028;2022-09-09T15:27:27;98177.50;;;24.45;47.03
40982;BME280;26708;50.304;19.028;2022-09-09T15:30:28;98189.47;;;24.54;46.98
40982;BME280;26708;50.304;19.028;2022-09-09T15:33:28;98148.41;;;24.24;47.61
40982;BME280;26708;50.304;19.028;2022-09-09T15:36:32;98179.53;;;24.40;48.13
40982;BME280;26708;50.304;19.028;2022-09-09T15:39:33;98186.56;;;24.41;47.09
40982;BME280;26708;50.304;19.028;2022-09-09T15:42:34;98103.16;;;23.90;47.33
40982;BME280;26708;50.304;19.028;2022-09-09T15:45:38;98107.72;;;23.88;47.93
40982;BME280;26708;50.304;19.028;2022-09-09T15:48:38;98126.34;;;23.88;48.49
40982;BME280;26708;50.304;19.028;2022-09-09T15:51:42;98057.53;;;23.45;49.53
40982;BME280;26708;50.304;19.028;2022-09-09T15:54:43;98120.56;;;23.78;48.53
40982;BME280;26708;50.304;19.028;2022-09-09T15:57:46;98188.91;;;24.13;48.50
40982;BME280;26708;50.304;19.028;2022-09-09T16:00:46;98178.69;;;24.04;49.76
40982;BME280;26708;50.304;19.028;2022-09-09T16:03:48;98152.94;;;23.88;50.87
40982;BME280;26708;50.304;19.028;2022-09-09T16:06:51;98182.22;;;24.05;51.50
40982;BME280;26708;50.304;19.028;2022-09-09T16:09:52;98181.50;;;24.01;51.03
40982;BME280;26708;50.304;19.028;2022-09-09T16:12:53;98153.00;;;23.87;51.89
40982;BME280;26708;50.304;19.028;2022-09-09T16:15:54;98152.31;;;23.81;52.56
40982;BME280;26708;50.304;19.028;2022-09-09T16:18:59;98175.00;;;23.90;53.11
40982;BME280;26708;50.304;19.028;2022-09-09T16:22:01;98175.16;;;23.87;53.68
40982;BME280;26708;50.304;19.028;2022-09-09T16:25:03;98174.41;;;23.83;53.26
40982;BME280;26708;50.304;19.028;2022-09-09T16:28:04;98167.66;;;23.77;53.79
40982;BME280;26708;50.304;19.028;2022-09-09T16:31:10;98160.19;;;23.66;54.45
40982;BME280;26708;50.304;19.028;2022-09-09T16:34:11;98165.44;;;23.68;54.88
40982;BME280;26708;50.304;19.028;2022-09-09T16:37:12;98167.28;;;23.66;55.29
40982;BME280;26708;50.304;19.028;2022-09-09T16:40:13;98170.06;;;23.64;54.94
40982;BME280;26708;50.304;19.028;2022-09-09T16:43:14;98150.22;;;23.53;55.07
40982;BME280;26708;50.304;19.028;2022-09-09T16:46:17;98164.06;;;23.59;55.78
40982;BME280;26708;50.304;19.028;2022-09-09T16:49:18;98161.56;;;23.56;55.93
40982;BME280;26708;50.304;19.028;2022-09-09T16:52:19;98163.53;;;23.53;56.08
40982;BME280;26708;50.304;19.028;2022-09-09T16:55:20;98160.97;;;23.50;56.65
40982;BME280;26708;50.304;19.028;2022-09-09T16:58:21;98169.06;;;23.48;56.90
40982;BME280;26708;50.304;19.028;2022-09-09T17:01:24;98171.06;;;23.43;57.32
40982;BME280;26708;50.304;19.028;2022-09-09T17:04:27;98168.84;;;23.34;57.49
40982;BME280;26708;50.304;19.028;2022-09-09T17:07:28;98170.47;;;23.18;57.83
40982;BME280;26708;50.304;19.028;2022-09-09T17:10:29;98171.94;;;23.05;58.17
40982;BME280;26708;50.304;19.028;2022-09-09T17:13:31;98177.59;;;22.98;58.62
40982;BME280;26708;50.304;19.028;2022-09-09T17:16:33;98177.88;;;22.92;58.97
40982;BME280;26708;50.304;19.028;2022-09-09T17:19:40;98159.81;;;22.80;59.38
40982;BME280;26708;50.304;19.028;2022-09-09T17:22:40;98175.63;;;22.83;59.64
40982;BME280;26708;50.304;19.028;2022-09-09T17:25:41;98170.78;;;22.72;59.76
40982;BME280;26708;50.304;19.028;2022-09-09T17:28:45;98189.91;;;22.80;59.55
40982;BME280;26708;50.304;19.028;2022-09-09T17:31:46;98184.66;;;22.79;59.97
40982;BME280;26708;50.304;19.028;2022-09-09T17:34:49;98190.94;;;22.76;60.29
40982;BME280;26708;50.304;19.028;2022-09-09T17:37:50;98187.91;;;22.65;60.42
40982;BME280;26708;50.304;19.028;2022-09-09T17:41:01;98190.56;;;22.65;60.19
40982;BME280;26708;50.304;19.028;2022-09-09T17:44:02;98199.47;;;22.64;60.88
40982;BME280;26708;50.304;19.028;2022-09-09T17:47:04;98182.88;;;22.59;61.04
40982;BME280;26708;50.304;19.028;2022-09-09T17:50:07;98174.72;;;22.44;61.78
40982;BME280;26708;50.304;19.028;2022-09-09T17:53:08;98199.97;;;22.52;62.04
40982;BME280;26708;50.304;19.028;2022-09-09T17:56:11;98199.44;;;22.44;62.22
40982;BME280;26708;50.304;19.028;2022-09-09T17:59:14;98205.53;;;22.46;62.64
40982;BME280;26708;50.304;19.028;2022-09-09T18:02:15;98209.28;;;22.42;63.32
40982;BME280;26708;50.304;19.028;2022-09-09T18:05:17;98198.03;;;22.36;63.47
40982;BME280;26708;50.304;19.028;2022-09-09T18:08:20;98209.38;;;22.39;63.20
40982;BME280;26708;50.304;19.028;2022-09-09T18:11:24;98206.88;;;22.35;63.74
40982;BME280;26708;50.304;19.028;2022-09-09T18:14:28;98206.28;;;22.28;63.49
40982;BME280;26708;50.304;19.028;2022-09-09T18:17:30;98211.84;;;22.22;63.22
40982;BME280;26708;50.304;19.028;2022-09-09T18:20:31;98212.78;;;22.21;63.14